Moody AFB, Georgia
Current Conditions -  °F | °C
As of 12:58 AM on Friday 31 Oct 2014 (Local Time) from KVAD Reporting Station
Clear Clear  
Wind Chill: 11°   Ceiling: Unl
Heat Index: 11°   Visibility: 10mi
Dew Point:   Wind: 3mph
Humidity: 86%   Direction: 340°NNW
Pressure: 29.93"   Gusts: NA
Location:  30.9753°N, 83.2042°W
Report Text: KVAD 310458Z AUTO 34003KT 10SM CLR 11/08 A2993 RMK AO2 SLP137 T01060083 402090102 $
Loading
Personal Weather Stations






























Interactive Weather Map
Tropical Storm Tracking
New forecast layout! Learn more

10-Day Weather Forecast

Advertisements
Track Severe Weather on mobile